createdAt,value
2022-12-24T00:08:22.392Z,3.30
2022-12-24T00:18:21.973Z,3.90
2022-12-24T00:28:21.602Z,3.20
2022-12-24T00:38:21.279Z,3.50
2022-12-24T00:48:20.668Z,3.70
2022-12-24T00:58:20.417Z,3.40
2022-12-24T01:08:20.029Z,4.00
2022-12-24T01:18:19.646Z,3.40
2022-12-24T01:28:19.121Z,3.70
2022-12-24T01:38:18.726Z,3.60
2022-12-24T01:48:18.484Z,3.10
2022-12-24T01:58:18.428Z,3.50
2022-12-24T02:08:17.735Z,3.70
2022-12-24T02:18:17.183Z,3.20
2022-12-24T02:28:16.794Z,3.90
2022-12-24T02:38:16.749Z,3.20
2022-12-24T02:48:16.326Z,3.60
2022-12-24T02:58:15.942Z,3.80
2022-12-24T03:08:15.423Z,3.10
2022-12-24T03:18:14.854Z,3.70
2022-12-24T03:28:14.761Z,3.60
2022-12-24T03:38:14.237Z,3.90
2022-12-24T03:48:13.890Z,3.90
2022-12-24T03:58:13.436Z,4.40
2022-12-24T04:08:12.883Z,4.00
2022-12-24T04:18:12.813Z,4.40
2022-12-24T04:28:12.231Z,3.60
2022-12-24T04:38:12.002Z,3.20
2022-12-24T04:48:11.454Z,4.00
2022-12-24T04:58:11.338Z,2.80
2022-12-24T05:08:10.527Z,3.00
2022-12-24T05:18:10.129Z,3.30
2022-12-24T05:28:09.712Z,3.30
2022-12-24T05:38:04.428Z,3.00
2022-12-24T05:48:03.898Z,3.20
2022-12-24T05:58:03.509Z,3.80
2022-12-24T06:08:03.450Z,4.00
2022-12-24T06:18:02.891Z,4.10
2022-12-24T06:28:02.361Z,5.10
2022-12-24T06:38:01.993Z,4.10
2022-12-24T06:48:01.772Z,4.90
2022-12-24T06:58:01.205Z,4.20
2022-12-24T07:08:00.973Z,4.40
2022-12-24T07:18:00.430Z,4.40
2022-12-24T07:28:00.218Z,3.50
2022-12-24T07:37:59.700Z,4.20
2022-12-24T07:47:59.463Z,4.30
2022-12-24T07:57:58.926Z,3.20
2022-12-24T08:07:58.734Z,3.80
2022-12-24T08:17:58.364Z,4.10
2022-12-24T08:27:57.866Z,3.40
2022-12-24T08:37:57.507Z,4.10
2022-12-24T08:47:57.293Z,3.80
2022-12-24T08:57:56.929Z,3.70
2022-12-24T09:07:56.394Z,4.20
2022-12-24T09:17:56.065Z,4.00
2022-12-24T09:27:55.995Z,4.30
2022-12-24T09:37:55.321Z,4.80
2022-12-24T09:47:54.940Z,4.40
2022-12-24T09:57:54.577Z,4.80
2022-12-24T10:07:54.661Z,4.10
2022-12-24T10:17:53.819Z,6.00
2022-12-24T10:27:53.461Z,4.70
2022-12-24T10:37:53.236Z,6.10
2022-12-24T10:47:52.870Z,5.20
2022-12-24T10:57:52.342Z,4.50
2022-12-24T11:07:52.131Z,4.60
2022-12-24T11:17:51.746Z,5.30
2022-12-24T11:27:51.253Z,4.50
2022-12-24T11:37:51.023Z,4.70
2022-12-24T11:47:50.652Z,4.20
2022-12-24T11:57:50.170Z,4.50
2022-12-24T12:07:49.903Z,4.30
2022-12-24T12:17:49.391Z,3.70
2022-12-24T12:27:49.230Z,4.10
2022-12-24T12:37:48.670Z,4.10
2022-12-24T12:47:48.453Z,4.30
2022-12-24T12:57:47.935Z,4.90
2022-12-24T13:07:47.718Z,4.90
2022-12-24T13:17:47.342Z,4.90
2022-12-24T13:27:47.139Z,4.40
2022-12-24T13:37:46.462Z,4.20
2022-12-24T13:47:46.447Z,3.90
2022-12-24T13:57:45.907Z,3.80
2022-12-24T14:07:45.520Z,3.40
2022-12-24T14:17:45.010Z,3.60
2022-12-24T14:27:44.796Z,4.20
2022-12-24T14:37:44.259Z,3.70
2022-12-24T14:47:43.865Z,4.00
2022-12-24T14:57:43.642Z,4.70
2022-12-24T15:07:47.252Z,3.50
2022-12-24T15:17:42.745Z,3.70
2022-12-24T15:27:42.536Z,3.80
2022-12-24T15:37:42.021Z,5.60
2022-12-24T15:47:41.825Z,4.20
2022-12-24T15:57:41.436Z,4.30
2022-12-24T16:07:41.213Z,4.40
2022-12-24T16:17:40.592Z,4.20
2022-12-24T16:27:40.384Z,4.10
2022-12-24T16:37:40.015Z,4.00
2022-12-24T16:47:43.006Z,5.00
2022-12-24T16:57:39.135Z,3.90
2022-12-24T17:07:43.243Z,4.30
2022-12-24T17:17:33.520Z,4.20
2022-12-24T17:27:33.144Z,4.10
2022-12-24T17:37:32.917Z,4.10
2022-12-24T17:47:32.404Z,4.50
2022-12-24T17:57:31.897Z,4.60
2022-12-24T18:07:31.680Z,4.70
2022-12-24T18:17:31.292Z,4.30
2022-12-24T18:27:30.966Z,5.00
2022-12-24T18:37:30.422Z,4.50
2022-12-24T18:47:30.376Z,4.80
2022-12-24T18:57:29.855Z,4.60
2022-12-24T19:07:29.355Z,5.00
2022-12-24T19:17:28.994Z,5.10
2022-12-24T19:27:28.644Z,5.00
2022-12-24T19:37:28.434Z,5.10
2022-12-24T19:47:28.107Z,5.40
2022-12-24T19:57:27.700Z,4.80
2022-12-24T20:07:27.353Z,4.80
2022-12-24T20:17:26.816Z,5.50
2022-12-24T20:27:26.621Z,5.40
2022-12-24T20:37:26.258Z,5.70
2022-12-24T20:47:25.867Z,5.10
2022-12-24T20:57:27.897Z,5.20
2022-12-24T21:07:25.119Z,5.20
2022-12-24T21:17:24.816Z,5.50
2022-12-24T21:27:24.405Z,4.50
2022-12-24T21:37:24.402Z,5.30
2022-12-24T21:47:23.490Z,5.20
2022-12-24T21:57:23.255Z,4.60
2022-12-24T22:07:17.855Z,4.40
2022-12-24T22:17:23.047Z,4.50
2022-12-24T22:27:16.967Z,4.20
2022-12-24T22:37:16.610Z,4.30
2022-12-24T22:47:16.235Z,4.10
2022-12-24T22:57:16.172Z,4.10
2022-12-24T23:07:15.467Z,3.90
2022-12-24T23:17:15.118Z,3.50
2022-12-24T23:27:14.730Z,3.90
2022-12-24T23:37:14.364Z,3.70
2022-12-24T23:47:13.987Z,3.90
2022-12-24T23:57:13.785Z,3.60
